createdAt,value
2019-06-26T00:00:39.015Z,34.75
2019-06-26T00:03:43.031Z,40.40
2019-06-26T00:06:47.222Z,38.40
2019-06-26T00:09:51.257Z,41.02
2019-06-26T00:12:55.368Z,44.73
2019-06-26T00:15:59.771Z,46.10
2019-06-26T00:19:03.991Z,42.27
2019-06-26T00:22:08.012Z,41.55
2019-06-26T00:25:12.122Z,41.15
2019-06-26T00:28:16.342Z,38.23
2019-06-26T00:31:20.563Z,36.93
2019-06-26T00:34:24.784Z,38.98
2019-06-26T00:37:28.903Z,39.85
2019-06-26T00:40:33.292Z,38.90
2019-06-26T00:43:42.285Z,39.38
2019-06-26T00:46:43.194Z,45.12
2019-06-26T00:49:47.320Z,43.08
2019-06-26T00:52:51.387Z,45.65
2019-06-26T00:55:55.350Z,40.58
2019-06-26T00:58:59.545Z,44.98
2019-06-26T01:02:03.452Z,35.75
2019-06-26T01:05:09.590Z,38.05
2019-06-26T01:08:13.531Z,39.55
2019-06-26T01:11:17.653Z,39.78
2019-06-26T01:14:21.607Z,41.70
2019-06-26T01:17:25.517Z,35.98
2019-06-26T01:20:29.693Z,38.58
2019-06-26T01:23:33.815Z,38.63
2019-06-26T01:26:38.034Z,34.27
2019-06-26T01:29:41.976Z,38.00
2019-06-26T01:32:45.984Z,40.40
2019-06-26T01:35:50.173Z,37.13
2019-06-26T01:38:54.093Z,36.15
2019-06-26T01:41:58.120Z,38.05
2019-06-26T01:45:02.133Z,41.00
2019-06-26T01:48:06.150Z,41.85
2019-06-26T01:51:10.107Z,36.30
2019-06-26T01:54:14.079Z,37.17
2019-06-26T01:57:18.049Z,39.38
2019-06-26T02:00:23.506Z,34.53
2019-06-26T02:03:27.548Z,30.43
2019-06-26T02:06:31.468Z,39.70
2019-06-26T02:09:35.437Z,35.58
2019-06-26T02:12:39.536Z,37.90
2019-06-26T02:15:43.482Z,36.42
2019-06-26T02:18:54.674Z,36.70
2019-06-26T02:21:58.635Z,32.28
2019-06-26T02:25:02.699Z,32.03
2019-06-26T02:28:06.819Z,28.23
2019-06-26T02:31:10.917Z,30.20
2019-06-26T02:34:14.866Z,31.45
2019-06-26T02:37:18.767Z,26.57
2019-06-26T02:40:22.860Z,30.95
2019-06-26T02:43:26.833Z,33.78
2019-06-26T02:46:30.732Z,27.00
2019-06-26T02:49:34.707Z,29.87
2019-06-26T02:52:38.675Z,32.45
2019-06-26T02:55:42.708Z,29.72
2019-06-26T02:58:46.647Z,28.90
2019-06-26T03:01:50.619Z,30.30
2019-06-26T03:04:54.556Z,26.87
2019-06-26T03:07:58.487Z,30.35
2019-06-26T03:11:02.601Z,29.27
2019-06-26T03:14:06.616Z,29.02
2019-06-26T03:17:10.588Z,32.78
2019-06-26T03:20:14.779Z,29.92
2019-06-26T03:23:18.746Z,28.20
2019-06-26T03:26:22.687Z,30.05
2019-06-26T03:29:26.619Z,29.37
2019-06-26T03:32:30.568Z,34.33
2019-06-26T03:35:34.486Z,31.37
2019-06-26T03:38:38.564Z,32.85
2019-06-26T03:41:42.618Z,35.35
2019-06-26T03:44:46.516Z,29.02
2019-06-26T03:47:50.494Z,32.55
2019-06-26T03:50:54.402Z,26.07
2019-06-26T03:53:58.337Z,26.15
2019-06-26T03:57:02.297Z,31.10
2019-06-26T04:00:08.628Z,28.12
2019-06-26T04:03:12.757Z,27.90
2019-06-26T04:06:16.801Z,28.80
2019-06-26T04:09:20.754Z,27.00
2019-06-26T04:12:24.686Z,22.58
2019-06-26T04:15:41.400Z,23.30
2019-06-26T04:18:34.194Z,28.17
2019-06-26T04:21:38.137Z,25.65
2019-06-26T04:24:42.157Z,25.75
2019-06-26T04:27:46.118Z,22.85
2019-06-26T04:30:50.069Z,21.12
2019-06-26T04:33:53.997Z,22.45
2019-06-26T04:36:58.041Z,21.85
2019-06-26T04:40:02.069Z,22.55
2019-06-26T04:43:05.991Z,18.75
2019-06-26T04:46:09.946Z,19.32
2019-06-26T04:49:14.120Z,16.82
2019-06-26T04:52:18.248Z,17.60
2019-06-26T04:55:22.329Z,15.75
2019-06-26T04:58:26.251Z,16.87
2019-06-26T05:01:30.165Z,13.22
2019-06-26T05:04:34.130Z,15.63
2019-06-26T05:07:38.018Z,13.85
2019-06-26T05:10:42.885Z,14.87
2019-06-26T05:13:46.808Z,15.35
2019-06-26T05:16:50.911Z,15.95
2019-06-26T05:19:54.805Z,24.87
2019-06-26T05:22:58.771Z,24.40
2019-06-26T05:26:02.804Z,25.52
2019-06-26T05:29:06.778Z,26.80
2019-06-26T05:32:10.741Z,32.50
2019-06-26T05:35:14.791Z,31.68
2019-06-26T05:38:18.729Z,22.58
2019-06-26T05:41:22.712Z,28.20
2019-06-26T05:44:26.757Z,22.00
2019-06-26T05:47:30.852Z,23.45
2019-06-26T05:50:34.847Z,25.02
2019-06-26T05:53:38.746Z,28.77
2019-06-26T05:56:45.332Z,21.57
2019-06-26T05:59:48.417Z,24.87
2019-06-26T06:02:54.029Z,31.05
2019-06-26T06:05:57.908Z,22.77
2019-06-26T06:09:02.088Z,21.12
2019-06-26T06:12:06.280Z,13.95
2019-06-26T06:15:10.719Z,14.20
2019-06-26T06:18:14.755Z,19.35
2019-06-26T06:21:18.663Z,14.13
2019-06-26T06:24:22.733Z,17.65
2019-06-26T06:27:26.727Z,24.50
2019-06-26T06:30:30.688Z,18.75
2019-06-26T06:33:34.766Z,13.25
2019-06-26T06:36:38.722Z,14.87
2019-06-26T06:39:42.628Z,14.40
2019-06-26T06:42:48.161Z,15.60
2019-06-26T06:45:52.295Z,15.72
2019-06-26T06:48:56.280Z,12.65
2019-06-26T06:52:00.317Z,16.48
2019-06-26T06:55:08.388Z,11.43
2019-06-26T06:58:12.408Z,16.70
2019-06-26T07:01:16.474Z,12.35
2019-06-26T07:04:20.435Z,15.20
2019-06-26T07:07:24.398Z,11.18
2019-06-26T07:10:47.685Z,14.70
2019-06-26T07:13:51.804Z,14.50
2019-06-26T07:16:55.835Z,12.00
2019-06-26T07:19:59.955Z,14.40
2019-06-26T07:23:04.062Z,14.75
2019-06-26T07:26:08.240Z,15.18
2019-06-26T07:29:12.183Z,13.38
2019-06-26T07:32:16.091Z,12.95
2019-06-26T07:35:20.056Z,12.53
2019-06-26T07:38:24.132Z,11.45
2019-06-26T07:41:28.182Z,10.20
2019-06-26T07:44:32.236Z,10.82
2019-06-26T07:47:43.349Z,13.50
2019-06-26T07:50:41.817Z,10.43
2019-06-26T07:53:45.727Z,12.10
2019-06-26T07:56:49.816Z,9.38
2019-06-26T07:59:53.893Z,9.45
2019-06-26T08:02:57.900Z,6.83
2019-06-26T08:06:02.022Z,17.45
2019-06-26T08:09:07.087Z,9.05
2019-06-26T08:12:10.992Z,12.55
2019-06-26T08:15:15.856Z,8.25
2019-06-26T08:18:19.877Z,10.53
2019-06-26T08:21:23.846Z,9.70
2019-06-26T08:24:27.756Z,9.18
2019-06-26T08:27:31.706Z,9.58
2019-06-26T08:30:35.647Z,8.45
2019-06-26T08:33:39.771Z,10.00
2019-06-26T08:36:43.803Z,8.30
2019-06-26T08:39:47.881Z,10.80
2019-06-26T08:42:52.733Z,7.83
2019-06-26T08:45:56.848Z,10.08
2019-06-26T08:49:00.777Z,8.03
2019-06-26T08:52:05.551Z,12.85
2019-06-26T08:55:09.749Z,11.97
2019-06-26T08:58:13.696Z,9.40
2019-06-26T09:01:17.625Z,8.63
2019-06-26T09:04:21.576Z,12.23
2019-06-26T09:07:25.479Z,9.80
2019-06-26T09:10:29.411Z,9.08
2019-06-26T09:13:33.290Z,9.23
2019-06-26T09:16:37.260Z,13.18
2019-06-26T09:19:41.197Z,10.60
2019-06-26T09:22:45.203Z,9.88
2019-06-26T09:25:49.177Z,9.63
2019-06-26T09:28:53.722Z,12.95
2019-06-26T09:31:57.623Z,14.20
2019-06-26T09:35:01.642Z,13.13
2019-06-26T09:38:05.678Z,9.35
2019-06-26T09:41:09.739Z,11.65
2019-06-26T09:44:13.778Z,10.98
2019-06-26T09:47:17.735Z,9.93
2019-06-26T09:50:21.767Z,8.28
2019-06-26T09:53:25.706Z,8.58
2019-06-26T09:56:29.621Z,9.83
2019-06-26T09:59:33.683Z,9.25
2019-06-26T10:02:37.792Z,11.68
2019-06-26T10:05:42.207Z,9.20
2019-06-26T10:08:46.094Z,14.10
2019-06-26T10:11:50.072Z,8.98
2019-06-26T10:14:53.983Z,7.83
2019-06-26T10:17:57.942Z,11.95
2019-06-26T10:21:01.900Z,10.48
2019-06-26T10:24:06.126Z,11.93
2019-06-26T10:27:10.237Z,7.97
2019-06-26T10:30:14.614Z,8.23
2019-06-26T10:33:18.542Z,9.38
2019-06-26T10:36:24.607Z,7.65
2019-06-26T10:39:28.232Z,7.40
2019-06-26T10:42:33.774Z,9.78
2019-06-26T10:45:37.792Z,8.20
2019-06-26T10:48:41.846Z,7.25
2019-06-26T10:51:45.966Z,9.78
2019-06-26T10:54:50.143Z,11.90
2019-06-26T10:57:54.262Z,8.58
2019-06-26T11:00:58.603Z,8.25
2019-06-26T11:04:02.843Z,9.65
2019-06-26T11:07:06.809Z,14.03
2019-06-26T11:10:11.539Z,8.03
2019-06-26T11:13:15.589Z,10.95
2019-06-26T11:16:19.491Z,9.40
2019-06-26T11:19:23.589Z,9.65
2019-06-26T11:22:27.574Z,9.95
2019-06-26T11:25:31.573Z,10.40
2019-06-26T11:28:35.526Z,7.50
2019-06-26T11:31:39.627Z,10.80
2019-06-26T11:34:43.627Z,9.33
2019-06-26T11:37:47.536Z,9.38
2019-06-26T11:40:51.507Z,9.83
2019-06-26T11:43:55.546Z,8.48
2019-06-26T11:46:59.560Z,9.15
2019-06-26T11:50:05.047Z,9.05
2019-06-26T11:53:09.009Z,9.10
2019-06-26T11:56:13.118Z,7.70
2019-06-26T11:59:17.055Z,8.90
2019-06-26T12:02:21.192Z,9.98
2019-06-26T12:05:25.436Z,6.62
2019-06-26T12:08:29.352Z,11.10
2019-06-26T12:11:33.308Z,11.83
2019-06-26T12:14:37.368Z,7.33
2019-06-26T12:17:41.271Z,9.28
2019-06-26T12:20:45.238Z,9.78
2019-06-26T12:23:49.278Z,8.03
2019-06-26T12:26:53.207Z,8.33
2019-06-26T12:29:57.128Z,7.28
2019-06-26T12:33:03.269Z,11.10
2019-06-26T12:36:06.800Z,10.38
2019-06-26T12:39:10.698Z,7.72
2019-06-26T12:42:14.637Z,6.80
2019-06-26T12:45:18.851Z,7.42
2019-06-26T12:48:22.918Z,8.33
2019-06-26T12:51:28.338Z,9.00
2019-06-26T12:54:32.521Z,12.33
2019-06-26T12:57:36.884Z,7.30
2019-06-26T13:00:41.471Z,9.48
2019-06-26T13:03:45.513Z,8.23
2019-06-26T13:06:49.818Z,9.83
2019-06-26T13:09:53.758Z,8.80
2019-06-26T13:12:57.792Z,14.03
2019-06-26T13:16:01.827Z,11.85
2019-06-26T13:19:05.842Z,14.23
2019-06-26T13:22:09.905Z,9.03
2019-06-26T13:25:16.156Z,11.03
2019-06-26T13:28:20.427Z,12.80
2019-06-26T13:31:24.366Z,11.65
2019-06-26T13:34:29.083Z,9.78
2019-06-26T13:37:33.582Z,9.65
2019-06-26T13:40:40.818Z,11.60
2019-06-26T13:43:43.153Z,9.05
2019-06-26T13:46:47.046Z,15.98
2019-06-26T13:49:51.005Z,8.75
2019-06-26T13:52:54.922Z,11.08
2019-06-26T13:55:58.853Z,10.28
2019-06-26T13:59:02.796Z,10.18
2019-06-26T14:02:06.726Z,10.15
2019-06-26T14:05:11.556Z,13.48
2019-06-26T14:08:15.439Z,9.33
2019-06-26T14:11:19.701Z,14.50
2019-06-26T14:14:41.108Z,9.60
2019-06-26T14:17:29.427Z,9.88
2019-06-26T14:20:33.938Z,10.58
2019-06-26T14:23:38.329Z,8.70
2019-06-26T14:26:42.497Z,10.38
2019-06-26T14:29:46.407Z,11.68
2019-06-26T14:32:50.367Z,9.20
2019-06-26T14:35:54.446Z,10.58
2019-06-26T14:38:58.552Z,16.55
2019-06-26T14:42:02.506Z,10.10
2019-06-26T14:45:07.607Z,10.18
2019-06-26T14:48:11.548Z,10.48
2019-06-26T14:51:15.441Z,13.18
2019-06-26T14:54:19.523Z,8.88
2019-06-26T14:57:25.989Z,12.75
2019-06-26T15:00:29.177Z,9.30
2019-06-26T15:03:33.147Z,10.68
2019-06-26T15:06:37.086Z,10.43
2019-06-26T15:09:41.018Z,9.65
2019-06-26T15:12:45.029Z,8.15
2019-06-26T15:15:49.000Z,11.00
2019-06-26T15:18:52.998Z,11.60
2019-06-26T15:21:58.681Z,9.30
2019-06-26T15:25:02.486Z,12.43
2019-06-26T15:28:09.409Z,16.32
2019-06-26T15:31:12.211Z,12.13
2019-06-26T15:34:16.284Z,13.13
2019-06-26T15:37:20.212Z,8.60
2019-06-26T15:40:24.271Z,10.03
2019-06-26T15:43:28.181Z,7.72
2019-06-26T15:46:32.077Z,8.38
2019-06-26T15:49:36.025Z,12.35
2019-06-26T15:52:39.989Z,11.40
2019-06-26T15:55:43.953Z,6.35
2019-06-26T15:58:47.886Z,8.53
2019-06-26T16:01:51.878Z,13.28
2019-06-26T16:04:55.887Z,9.33
2019-06-26T16:07:59.809Z,9.70
2019-06-26T16:11:03.718Z,8.83
2019-06-26T16:14:07.681Z,9.28
2019-06-26T16:17:15.947Z,9.25
2019-06-26T16:20:20.402Z,5.87
2019-06-26T16:23:24.318Z,8.73
2019-06-26T16:26:28.270Z,10.93
2019-06-26T16:29:32.221Z,12.03
2019-06-26T16:32:36.196Z,8.38
2019-06-26T16:35:40.294Z,10.13
2019-06-26T16:38:44.447Z,10.68
2019-06-26T16:41:49.195Z,18.82
2019-06-26T16:44:53.217Z,9.13
2019-06-26T16:47:57.231Z,10.95
2019-06-26T16:51:01.677Z,11.73
2019-06-26T16:54:05.583Z,11.93
2019-06-26T16:57:09.560Z,7.67
2019-06-26T17:00:14.099Z,18.85
2019-06-26T17:03:18.036Z,9.20
2019-06-26T17:06:21.947Z,12.37
2019-06-26T17:09:25.896Z,7.97
2019-06-26T17:12:29.816Z,11.43
2019-06-26T17:15:33.747Z,8.23
2019-06-26T17:18:37.725Z,12.45
2019-06-26T17:21:41.749Z,8.93
2019-06-26T17:24:45.826Z,10.20
2019-06-26T17:27:49.828Z,7.67
2019-06-26T17:30:53.802Z,16.75
2019-06-26T17:33:57.790Z,11.03
2019-06-26T17:37:01.862Z,11.40
2019-06-26T17:40:08.686Z,12.73
2019-06-26T17:43:13.085Z,7.95
2019-06-26T17:46:17.078Z,11.83
2019-06-26T17:49:21.028Z,12.43
2019-06-26T17:52:25.116Z,11.68
2019-06-26T17:55:29.041Z,9.43
2019-06-26T17:58:33.026Z,13.98
2019-06-26T18:01:36.986Z,8.43
2019-06-26T18:04:40.955Z,10.60
2019-06-26T18:07:44.868Z,11.10
2019-06-26T18:10:48.836Z,13.50
2019-06-26T18:13:52.778Z,15.00
2019-06-26T18:16:56.854Z,13.48
2019-06-26T18:20:00.826Z,10.55
2019-06-26T18:23:07.491Z,11.53
2019-06-26T18:26:13.344Z,12.00
2019-06-26T18:29:16.027Z,9.63
2019-06-26T18:32:19.926Z,15.23
2019-06-26T18:35:23.888Z,12.03
2019-06-26T18:38:27.826Z,11.38
2019-06-26T18:41:31.959Z,11.18
2019-06-26T18:44:35.976Z,15.63
2019-06-26T18:47:40.013Z,24.37
2019-06-26T18:50:43.953Z,14.98
2019-06-26T18:53:53.684Z,17.17
2019-06-26T18:56:53.612Z,12.35
2019-06-26T18:59:57.577Z,32.75
2019-06-26T19:03:01.530Z,17.57
2019-06-26T19:06:05.604Z,13.25
2019-06-26T19:09:09.637Z,15.63
2019-06-26T19:12:13.530Z,15.13
2019-06-26T19:15:17.787Z,16.52
2019-06-26T19:18:21.757Z,13.72
2019-06-26T19:21:25.736Z,15.55
2019-06-26T19:24:29.662Z,22.00
2019-06-26T19:27:33.720Z,15.65
2019-06-26T19:30:37.733Z,21.37
2019-06-26T19:33:44.810Z,13.75
2019-06-26T19:36:50.438Z,12.75
2019-06-26T19:39:53.549Z,18.00
2019-06-26T19:42:57.673Z,18.23
2019-06-26T19:46:01.686Z,22.93
2019-06-26T19:49:05.672Z,17.90
2019-06-26T19:52:09.575Z,18.25
2019-06-26T19:55:16.479Z,14.98
2019-06-26T19:58:21.598Z,16.07
2019-06-26T20:01:25.816Z,22.75
2019-06-26T20:04:29.866Z,15.05
2019-06-26T20:07:33.797Z,16.35
2019-06-26T20:10:41.067Z,13.05
2019-06-26T20:13:45.437Z,14.47
2019-06-26T20:16:49.387Z,12.05
2019-06-26T20:19:53.529Z,13.85
2019-06-26T20:22:57.481Z,13.15
2019-06-26T20:26:01.496Z,10.28
2019-06-26T20:29:05.544Z,15.10
2019-06-26T20:32:09.487Z,12.73
2019-06-26T20:35:13.487Z,11.90
2019-06-26T20:38:17.418Z,13.48
2019-06-26T20:41:21.511Z,13.05
2019-06-26T20:44:25.550Z,11.68
2019-06-26T20:47:29.546Z,17.40
2019-06-26T20:50:33.581Z,16.90
2019-06-26T20:53:37.555Z,11.55
2019-06-26T20:56:41.505Z,12.30
2019-06-26T20:59:45.407Z,13.55
2019-06-26T21:02:49.516Z,10.48
2019-06-26T21:05:53.816Z,15.60
2019-06-26T21:08:57.748Z,17.95
2019-06-26T21:12:02.235Z,12.70
2019-06-26T21:15:07.392Z,10.48
2019-06-26T21:18:11.622Z,11.30
2019-06-26T21:21:15.531Z,11.05
2019-06-26T21:24:19.469Z,11.95
2019-06-26T21:27:23.373Z,14.45
2019-06-26T21:30:27.336Z,14.83
2019-06-26T21:33:31.371Z,13.58
2019-06-26T21:36:35.310Z,12.37
2019-06-26T21:39:39.236Z,12.35
2019-06-26T21:42:43.263Z,11.90
2019-06-26T21:45:47.230Z,12.35
2019-06-26T21:48:51.243Z,13.28
2019-06-26T21:51:55.134Z,14.28
2019-06-26T21:54:59.115Z,17.95
2019-06-26T21:58:03.071Z,13.10
2019-06-26T22:01:07.066Z,14.20
2019-06-26T22:04:11.611Z,11.70
2019-06-26T22:07:15.505Z,10.10
2019-06-26T22:10:19.689Z,11.60
2019-06-26T22:13:23.963Z,14.53
2019-06-26T22:16:27.957Z,9.75
2019-06-26T22:19:31.863Z,14.33
2019-06-26T22:22:35.847Z,16.05
2019-06-26T22:25:50.375Z,12.25
2019-06-26T22:28:45.891Z,12.05
2019-06-26T22:31:49.866Z,9.65
2019-06-26T22:34:53.822Z,12.45
2019-06-26T22:37:57.787Z,14.05
2019-06-26T22:41:01.696Z,10.05
2019-06-26T22:44:05.776Z,16.00
2019-06-26T22:47:09.738Z,10.48
2019-06-26T22:50:14.144Z,11.88
2019-06-26T22:53:18.260Z,14.58
2019-06-26T22:56:22.236Z,10.30
2019-06-26T22:59:26.180Z,12.05
2019-06-26T23:02:30.147Z,13.05
2019-06-26T23:05:34.043Z,12.70
2019-06-26T23:08:37.987Z,9.73
2019-06-26T23:11:41.997Z,14.90
2019-06-26T23:14:45.938Z,9.50
2019-06-26T23:17:49.878Z,11.63
2019-06-26T23:20:53.788Z,13.45
2019-06-26T23:23:57.844Z,13.58
2019-06-26T23:27:01.881Z,14.00
2019-06-26T23:30:19.318Z,14.43
2019-06-26T23:33:23.246Z,13.43
2019-06-26T23:36:27.206Z,14.25
2019-06-26T23:39:31.176Z,14.63
2019-06-26T23:42:35.118Z,12.78
2019-06-26T23:45:39.018Z,16.52
2019-06-26T23:48:45.646Z,13.78
2019-06-26T23:51:48.518Z,12.18
2019-06-26T23:54:52.459Z,13.15
2019-06-26T23:57:59.317Z,13.13
